createdAt,value
2023-01-19T00:03:30.452Z,61.51
2023-01-19T00:08:34.684Z,60.88
2023-01-19T00:13:37.492Z,60.50
2023-01-19T00:18:40.117Z,60.16
2023-01-19T00:23:47.145Z,59.88
2023-01-19T00:28:50.344Z,59.67
2023-01-19T00:33:53.190Z,57.06
2023-01-19T00:38:55.869Z,58.71
2023-01-19T00:43:58.460Z,63.43
2023-01-19T00:49:01.162Z,68.91
2023-01-19T00:54:04.845Z,66.79
2023-01-19T00:59:07.513Z,64.36
2023-01-19T01:04:12.090Z,63.06
2023-01-19T01:09:14.951Z,61.50
2023-01-19T01:14:18.270Z,60.35
2023-01-19T01:19:21.333Z,60.06
2023-01-19T01:24:23.905Z,57.53
2023-01-19T01:29:26.575Z,57.33
2023-01-19T01:34:29.158Z,60.12
2023-01-19T01:39:31.715Z,67.62
2023-01-19T01:44:57.493Z,69.10
2023-01-19T01:50:13.069Z,66.07
2023-01-19T01:55:18.591Z,64.25
2023-01-19T02:00:21.618Z,62.43
2023-01-19T02:05:28.231Z,61.18
2023-01-19T02:10:50.272Z,59.67
2023-01-19T02:15:59.416Z,56.38
2023-01-19T02:21:26.370Z,57.73
2023-01-19T02:26:38.317Z,58.55
2023-01-19T02:31:41.428Z,65.68
2023-01-19T02:37:07.576Z,71.35
2023-01-19T02:42:18.836Z,68.18
2023-01-19T02:47:21.809Z,65.24
2023-01-19T02:52:26.205Z,62.83
2023-01-19T02:57:50.194Z,61.11
2023-01-19T03:02:59.263Z,59.90
2023-01-19T03:08:39.643Z,56.74
2023-01-19T03:13:57.895Z,58.56
2023-01-19T03:19:13.166Z,60.23
2023-01-19T03:24:19.313Z,65.25
2023-01-19T03:29:24.557Z,69.01
2023-01-19T03:34:28.915Z,70.26
2023-01-19T03:39:32.001Z,66.44
2023-01-19T03:44:38.411Z,65.61
2023-01-19T03:49:44.311Z,64.69
2023-01-19T03:54:46.899Z,63.21
2023-01-19T03:59:49.624Z,60.76
2023-01-19T04:04:52.225Z,59.65
2023-01-19T04:09:54.772Z,56.19
2023-01-19T04:14:57.322Z,58.32
2023-01-19T04:20:00.447Z,60.27
2023-01-19T04:25:03.298Z,66.84
2023-01-19T04:30:06.919Z,68.33
2023-01-19T04:35:09.700Z,65.04
2023-01-19T04:40:12.697Z,62.20
2023-01-19T04:45:15.423Z,60.35
2023-01-19T04:50:18.596Z,56.88
2023-01-19T04:55:21.443Z,58.86
2023-01-19T05:00:24.137Z,61.30
2023-01-19T05:05:27.375Z,68.11
2023-01-19T05:10:30.003Z,68.92
2023-01-19T05:15:32.603Z,64.85
2023-01-19T05:20:35.207Z,63.10
2023-01-19T05:25:37.814Z,62.20
2023-01-19T05:30:40.412Z,58.15
2023-01-19T05:35:43.132Z,58.92
2023-01-19T05:40:45.726Z,60.37
2023-01-19T05:45:48.264Z,66.68
2023-01-19T05:50:51.053Z,69.41
2023-01-19T05:55:59.179Z,65.78
2023-01-19T06:01:05.398Z,65.09
2023-01-19T06:06:08.172Z,62.83
2023-01-19T06:11:11.661Z,61.03
2023-01-19T06:16:14.552Z,60.26
2023-01-19T06:21:17.426Z,59.70
2023-01-19T06:26:20.068Z,58.18
2023-01-19T06:31:22.851Z,56.66
2023-01-19T06:36:25.660Z,57.79
2023-01-19T06:41:28.290Z,60.58
2023-01-19T06:46:31.358Z,67.64
2023-01-19T06:51:34.196Z,69.86
2023-01-19T06:56:37.040Z,67.14
2023-01-19T07:01:40.641Z,64.08
2023-01-19T07:06:43.473Z,61.70
2023-01-19T07:11:47.021Z,59.91
2023-01-19T07:16:49.706Z,57.60
2023-01-19T07:21:52.407Z,57.78
2023-01-19T07:26:54.978Z,59.02
2023-01-19T07:31:57.822Z,66.05
2023-01-19T07:37:00.710Z,68.43
2023-01-19T07:42:03.498Z,65.65
2023-01-19T07:47:07.696Z,62.65
2023-01-19T07:52:10.790Z,62.64
2023-01-19T07:57:13.780Z,61.72
2023-01-19T08:02:17.444Z,61.83
2023-01-19T08:07:20.375Z,61.46
2023-01-19T08:12:22.963Z,61.21
2023-01-19T08:17:25.604Z,60.65
2023-01-19T08:22:28.514Z,61.14
2023-01-19T08:27:31.226Z,60.27
2023-01-19T08:32:33.961Z,59.46
2023-01-19T08:37:36.733Z,56.19
2023-01-19T08:42:39.763Z,57.13
2023-01-19T08:47:42.866Z,59.19
2023-01-19T08:52:45.702Z,67.20
2023-01-19T08:57:52.611Z,69.48
2023-01-19T09:02:56.541Z,66.28
2023-01-19T09:07:59.322Z,63.93
2023-01-19T09:13:06.954Z,62.15
2023-01-19T09:18:21.515Z,60.73
2023-01-19T09:23:25.481Z,59.97
2023-01-19T09:28:29.332Z,57.34
2023-01-19T09:33:32.105Z,57.61
2023-01-19T09:38:34.669Z,60.34
2023-01-19T09:43:47.991Z,67.01
2023-01-19T09:48:50.599Z,67.60
2023-01-19T09:54:04.996Z,65.11
2023-01-19T09:59:29.157Z,62.62
2023-01-19T10:04:43.567Z,61.06
2023-01-19T10:10:05.759Z,57.77
2023-01-19T10:15:53.525Z,56.59
2023-01-19T10:21:06.438Z,58.96
2023-01-19T10:26:36.286Z,65.39
2023-01-19T10:31:42.588Z,68.05
2023-01-19T10:36:48.118Z,66.29
2023-01-19T10:41:53.438Z,64.23
2023-01-19T10:46:58.959Z,62.29
2023-01-19T10:52:03.304Z,61.50
2023-01-19T10:57:10.157Z,60.54
2023-01-19T11:02:20.628Z,56.76
2023-01-19T11:07:26.950Z,57.18
2023-01-19T11:12:30.669Z,58.82
2023-01-19T11:17:33.662Z,66.87
2023-01-19T11:22:36.884Z,68.27
2023-01-19T11:27:50.342Z,64.83
2023-01-19T11:32:54.355Z,62.45
2023-01-19T11:38:27.239Z,60.72
2023-01-19T11:43:43.536Z,56.05
2023-01-19T11:49:02.094Z,58.45
2023-01-19T11:54:19.966Z,64.21
2023-01-19T11:59:25.014Z,65.72
2023-01-19T12:04:39.301Z,62.33
2023-01-19T12:09:47.389Z,61.23
2023-01-19T12:15:11.920Z,59.47
2023-01-19T12:20:52.131Z,56.17
2023-01-19T12:26:03.547Z,57.93
2023-01-19T12:31:06.332Z,59.21
2023-01-19T12:36:27.642Z,65.10
2023-01-19T12:41:31.771Z,67.99
2023-01-19T12:46:34.939Z,65.39
2023-01-19T12:51:38.159Z,63.55
2023-01-19T12:56:42.893Z,61.16
2023-01-19T13:02:24.074Z,56.96
2023-01-19T13:07:26.566Z,55.61
2023-01-19T13:12:29.357Z,55.75
2023-01-19T13:17:54.056Z,59.02
2023-01-19T13:23:24.622Z,66.70
2023-01-19T13:28:41.518Z,68.52
2023-01-19T13:34:04.123Z,65.05
2023-01-19T13:39:16.579Z,63.21
2023-01-19T13:44:23.715Z,62.53
2023-01-19T13:49:32.742Z,61.88
2023-01-19T13:54:35.632Z,61.18
2023-01-19T13:59:38.177Z,60.98
2023-01-19T14:04:40.745Z,60.26
2023-01-19T14:09:43.451Z,55.81
2023-01-19T14:14:48.137Z,56.71
2023-01-19T14:19:53.316Z,57.82
2023-01-19T14:24:56.009Z,63.93
2023-01-19T14:30:20.451Z,68.29
2023-01-19T14:35:25.042Z,65.20
2023-01-19T14:40:27.896Z,63.18
2023-01-19T14:45:36.116Z,62.25
2023-01-19T14:50:42.846Z,61.84
2023-01-19T14:55:55.910Z,61.19
2023-01-19T15:00:58.658Z,60.59
2023-01-19T15:06:04.186Z,58.56
2023-01-19T15:11:11.828Z,56.05
2023-01-19T15:16:14.770Z,57.80
2023-01-19T15:21:20.000Z,58.99
2023-01-19T15:26:24.911Z,66.98
2023-01-19T15:31:27.672Z,68.24
2023-01-19T15:36:30.495Z,63.64
2023-01-19T15:41:33.623Z,61.13
2023-01-19T15:46:36.901Z,56.96
2023-01-19T15:51:39.556Z,58.03
2023-01-19T15:56:42.708Z,60.00
2023-01-19T16:01:45.574Z,66.70
2023-01-19T16:06:50.096Z,68.19
2023-01-19T16:11:56.898Z,64.93
2023-01-19T16:17:00.894Z,62.56
2023-01-19T16:22:05.612Z,61.16
2023-01-19T16:27:08.850Z,60.18
2023-01-19T16:32:12.465Z,56.50
2023-01-19T16:37:15.126Z,56.40
2023-01-19T16:42:21.127Z,58.93
2023-01-19T16:47:23.974Z,66.12
2023-01-19T16:52:26.618Z,68.29
2023-01-19T16:57:29.505Z,67.46
2023-01-19T17:02:32.126Z,65.73
2023-01-19T17:07:35.048Z,64.22
2023-01-19T17:19:21.874Z,61.75
2023-01-19T17:24:25.018Z,60.78
2023-01-19T17:29:28.236Z,60.41
2023-01-19T17:34:31.011Z,57.22
2023-01-19T17:39:33.759Z,57.75
2023-01-19T17:44:36.349Z,60.49
2023-01-19T17:49:39.361Z,66.92
2023-01-19T17:54:41.945Z,69.49
2023-01-19T17:59:44.582Z,66.82
2023-01-19T18:04:47.175Z,65.60
2023-01-19T18:09:51.715Z,63.68
2023-01-19T18:14:54.275Z,61.93
2023-01-19T18:19:57.298Z,61.32
2023-01-19T18:25:01.543Z,60.20
2023-01-19T18:30:04.953Z,56.80
2023-01-19T18:35:08.363Z,58.33
2023-01-19T18:40:12.758Z,60.27
2023-01-19T18:45:16.119Z,66.44
2023-01-19T18:50:19.072Z,68.95
2023-01-19T18:55:21.730Z,65.18
2023-01-19T19:00:24.392Z,62.72
2023-01-19T19:05:27.071Z,61.39
2023-01-19T19:10:30.113Z,60.41
2023-01-19T19:15:34.330Z,56.82
2023-01-19T19:20:40.175Z,57.95
2023-01-19T19:25:42.813Z,60.15
2023-01-19T19:30:46.465Z,66.46
2023-01-19T19:35:56.352Z,67.73
2023-01-19T19:41:04.123Z,66.31
2023-01-19T19:46:09.516Z,63.59
2023-01-19T19:51:19.387Z,61.67
2023-01-19T19:56:24.231Z,59.57
2023-01-19T20:01:32.501Z,56.34
2023-01-19T20:06:38.914Z,59.10
2023-01-19T20:11:43.965Z,60.74
2023-01-19T20:16:46.659Z,67.56
2023-01-19T20:21:50.017Z,68.51
2023-01-19T20:26:53.183Z,66.66
2023-01-19T20:31:59.996Z,63.33
2023-01-19T20:37:04.696Z,61.49
2023-01-19T20:42:13.683Z,60.24
2023-01-19T20:47:21.684Z,55.83
2023-01-19T20:52:26.414Z,57.69
2023-01-19T20:57:31.148Z,60.38
2023-01-19T21:02:33.818Z,67.17
2023-01-19T21:07:36.908Z,69.92
2023-01-19T21:12:39.668Z,62.52
2023-01-19T21:17:45.199Z,59.57
2023-01-19T21:22:48.243Z,55.66
2023-01-19T21:27:51.330Z,58.43
2023-01-19T21:32:55.139Z,60.29
2023-01-19T21:37:58.310Z,69.57
2023-01-19T21:43:01.088Z,66.59
2023-01-19T21:48:03.714Z,59.47
2023-01-19T21:53:11.290Z,56.07
2023-01-19T21:58:13.981Z,58.80
2023-01-19T22:03:16.829Z,60.79
2023-01-19T22:08:19.440Z,69.73
2023-01-19T22:13:22.032Z,64.87
2023-01-19T22:18:24.686Z,59.53
2023-01-19T22:23:27.386Z,55.34
2023-01-19T22:28:29.937Z,57.53
2023-01-19T22:33:36.013Z,59.56
2023-01-19T22:38:40.116Z,67.95
2023-01-19T22:43:43.582Z,64.56
2023-01-19T22:48:48.799Z,58.57
2023-01-19T22:53:51.877Z,56.28
2023-01-19T22:58:55.394Z,57.98
2023-01-19T23:03:58.032Z,59.30
2023-01-19T23:09:04.521Z,68.97
2023-01-19T23:14:11.557Z,66.62
2023-01-19T23:19:16.853Z,63.64
2023-01-19T23:24:20.829Z,60.22
2023-01-19T23:29:23.750Z,57.06
2023-01-19T23:34:26.751Z,58.59
2023-01-19T23:39:29.534Z,66.61
2023-01-19T23:44:32.102Z,63.92
2023-01-19T23:49:34.661Z,61.56
2023-01-19T23:54:37.317Z,60.08
2023-01-19T23:59:40.047Z,57.04
